Time;durP1;ratioP1;P1;durP2;ratioP2;P2;SDS_P1;SDS_P2;PMS_P1;PMS_P2;Temp;Humidity;BMP_temperature;BMP_pressure;BME280_temperature;BME280_humidity;BME280_pressure;Samples;Min_cycle;Max_cycle;Signal;HPM_P1;HPM_P2
2023/01/17 00:02:20;;;;;;;5.28;0.85;;;8.90;99.90;;;;;;10532542;28;20089;-26
2023/01/17 00:12:47;;;;;;;8.45;1.58;;;9.90;99.90;;;;;;10529449;28;20056;-28
2023/01/17 00:17:51;;;;;;;4.07;1.05;;;11.10;99.90;;;;;;10534881;28;20077;-25
2023/01/17 01:36:43;;;;;;;4.35;1.63;;;6.70;99.90;;;;;;10524316;28;20556;-24
2023/01/17 01:41:45;;;;;;;;;;;6.80;99.90;;;;;;10532881;28;20043;-24
2023/01/17 01:46:46;;;;;;;5.00;0.75;;;7.20;99.90;;;;;;10525821;28;19959;-25
2023/01/17 01:51:53;;;;;;;5.53;1.45;;;7.20;94.30;;;;;;10530135;28;20071;-24
2023/01/17 01:57:00;;;;;;;3.83;1.10;;;7.10;99.90;;;;;;10524681;28;20080;-24
2023/01/17 02:02:02;;;;;;;9.25;0.70;;;7.30;99.90;;;;;;10526875;28;20105;-24
2023/01/17 02:07:10;;;;;;;9.32;0.95;;;6.20;99.90;;;;;;10512983;28;20129;-28
2023/01/17 02:12:12;;;;;;;3.80;0.63;;;6.90;99.90;;;;;;10519939;28;20052;-25
2023/01/17 02:17:25;;;;;;;3.83;0.65;;;5.70;90.30;;;;;;10524726;28;20138;-24
2023/01/17 02:22:54;;;;;;;14.55;1.40;;;6.40;99.90;;;;;;10509781;28;20054;-25
2023/01/17 02:28:15;;;;;;;7.47;1.00;;;6.60;95.20;;;;;;10510802;28;20048;-24
2023/01/17 02:33:28;;;;;;;8.70;1.40;;;7.70;99.90;;;;;;10522516;28;20469;-24
2023/01/17 02:38:38;;;;;;;8.07;1.02;;;7.90;99.90;;;;;;10528916;28;20079;-25
2023/01/17 02:43:41;;;;;;;5.65;1.55;;;7.90;99.90;;;;;;10536446;28;20157;-25
2023/01/17 02:48:45;;;;;;;6.45;1.85;;;7.10;99.90;;;;;;10530503;28;20044;-25
2023/01/17 02:54:03;;;;;;;4.22;0.93;;;9.10;99.90;;;;;;10533011;28;20138;-24
2023/01/17 02:59:18;;;;;;;4.20;1.10;;;7.50;92.40;;;;;;10522998;28;20105;-26
2023/01/17 03:04:26;;;;;;;3.17;0.90;;;8.30;97.40;;;;;;10524883;28;20075;-24
2023/01/17 03:09:29;;;;;;;2.53;0.60;;;7.60;91.20;;;;;;10524543;28;20496;-23
2023/01/17 03:14:31;;;;;;;7.88;1.48;;;6.50;95.30;;;;;;10515639;28;20084;-25
2023/01/17 03:19:34;;;;;;;10.02;1.00;;;8.10;95.00;;;;;;10523792;28;20512;-27
2023/01/17 03:24:36;;;;;;;;;;;8.10;99.90;;;;;;10530498;28;20135;-25
2023/01/17 03:29:37;;;;;;;6.30;0.75;;;7.60;99.90;;;;;;10526192;28;20018;-25
2023/01/17 03:34:41;;;;;;;2.33;1.00;;;7.40;97.20;;;;;;10537004;28;20487;-25
2023/01/17 03:39:42;;;;;;;9.57;1.40;;;9.00;99.90;;;;;;10521098;28;20094;-24
2023/01/17 03:44:44;;;;;;;9.63;1.02;;;8.00;99.90;;;;;;10528508;28;21007;-24
2023/01/17 03:49:48;;;;;;;6.70;1.13;;;7.60;99.90;;;;;;10528982;28;20096;-26
2023/01/17 03:54:49;;;;;;;;;;;7.60;98.70;;;;;;10539860;28;20059;-24
2023/01/17 03:59:51;;;;;;;10.52;1.80;;;7.40;99.90;;;;;;10535259;28;19920;-24
2023/01/17 04:04:54;;;;;;;4.28;0.90;;;6.70;99.90;;;;;;10530517;28;20044;-25
2023/01/17 04:09:56;;;;;;;;;;;6.40;99.90;;;;;;10530215;28;20044;-25
2023/01/17 04:14:58;;;;;;;8.70;0.88;;;6.50;99.90;;;;;;10535761;28;19928;-27
2023/01/17 04:20:01;;;;;;;5.28;1.20;;;6.20;99.90;;;;;;10535545;28;20040;-24
2023/01/17 04:25:03;;;;;;;;;;;6.20;99.90;;;;;;10535730;28;20507;-25
2023/01/17 04:30:06;;;;;;;12.82;1.30;;;5.80;99.90;;;;;;10532410;28;19927;-25
2023/01/17 04:35:09;;;;;;;14.38;1.60;;;7.90;99.90;;;;;;10534254;28;20477;-25
2023/01/17 04:40:12;;;;;;;3.60;1.08;;;6.10;95.10;;;;;;10535630;28;20051;-24
2023/01/17 04:45:15;;;;;;;7.70;0.95;;;8.30;99.90;;;;;;10534717;28;20044;-24
2023/01/17 04:50:18;;;;;;;3.53;0.80;;;8.00;99.90;;;;;;10523150;28;20476;-24
2023/01/17 04:55:20;;;;;;;0.98;0.60;;;7.50;99.90;;;;;;10526158;28;20547;-24
2023/01/17 05:00:22;;;;;;;1.75;0.85;;;7.50;99.90;;;;;;10530454;28;20048;-24
2023/01/17 05:05:26;;;;;;;7.40;1.00;;;8.20;74.80;;;;;;10529401;28;20080;-25
2023/01/17 05:10:28;;;;;;;4.38;1.00;;;7.20;98.80;;;;;;10530877;28;20134;-24
2023/01/17 05:15:30;;;;;;;2.58;1.00;;;5.20;99.20;;;;;;10520138;28;20725;-24
2023/01/17 05:20:35;;;;;;;8.30;1.88;;;5.40;99.90;;;;;;10522493;28;20076;-25
2023/01/17 05:25:37;;;;;;;3.90;1.27;;;6.80;94.20;;;;;;10523890;28;20123;-26
2023/01/17 05:30:40;;;;;;;2.70;0.93;;;8.30;99.90;;;;;;10516669;28;20076;-25
2023/01/17 05:35:43;;;;;;;1.30;0.70;;;8.20;99.90;;;;;;10524679;28;20059;-25
2023/01/17 05:40:45;;;;;;;1.95;0.70;;;10.00;99.90;;;;;;10522101;28;20048;-27
2023/01/17 05:45:49;;;;;;;3.10;0.85;;;9.10;99.90;;;;;;10525924;28;20067;-26
2023/01/17 05:50:52;;;;;;;5.35;0.98;;;8.30;99.90;;;;;;10520368;28;20055;-23
2023/01/17 05:55:54;;;;;;;2.25;1.05;;;8.30;99.90;;;;;;10533291;28;20404;-25
2023/01/17 06:00:56;;;;;;;4.38;1.13;;;10.50;99.90;;;;;;10515307;28;20063;-26
2023/01/17 06:05:59;;;;;;;4.28;0.80;;;10.10;99.90;;;;;;10508560;28;20070;-25
2023/01/17 06:11:01;;;;;;;1.10;0.47;;;9.30;96.70;;;;;;10533785;28;20051;-26
2023/01/17 06:16:03;;;;;;;1.08;0.57;;;11.60;99.90;;;;;;10526985;28;20158;-26
2023/01/17 06:21:06;;;;;;;4.70;0.80;;;12.10;99.90;;;;;;10523605;28;20055;-26
2023/01/17 06:26:09;;;;;;;1.65;0.90;;;12.40;97.10;;;;;;10535179;28;20044;-26
2023/01/17 06:31:11;;;;;;;2.10;0.80;;;12.20;96.20;;;;;;10529025;28;20079;-25
2023/01/17 06:36:14;;;;;;;8.90;1.50;;;13.50;96.80;;;;;;10518157;28;20557;-25
2023/01/17 06:41:16;;;;;;;2.50;0.70;;;12.30;97.90;;;;;;10519303;28;20044;-26
2023/01/17 06:46:18;;;;;;;5.73;0.60;;;13.70;95.70;;;;;;10526515;28;20071;-26
2023/01/17 06:51:21;;;;;;;1.00;0.60;;;14.00;94.40;;;;;;10508823;28;20135;-25
2023/01/17 06:56:23;;;;;;;0.55;0.40;;;14.10;94.00;;;;;;10531777;28;20147;-28
2023/01/17 07:01:25;;;;;;;5.75;0.65;;;14.00;94.40;;;;;;10526410;28;20058;-25
2023/01/17 07:06:28;;;;;;;1.90;0.70;;;14.10;93.70;;;;;;10536234;28;20468;-25
2023/01/17 07:14:59;;;;;;;2.40;0.60;;;14.20;93.40;;;;;;10543619;27;20115;-25
2023/01/17 07:20:01;;;;;;;2.40;0.80;;;13.50;97.10;;;;;;10563392;28;20048;-26
2023/01/17 07:25:03;;;;;;;1.67;0.80;;;12.40;59.00;;;;;;10557665;28;20453;-26
2023/01/17 07:30:08;;;;;;;0.70;0.50;;;14.00;95.00;;;;;;10558045;28;20052;-23
2023/01/17 07:35:10;;;;;;;0.98;0.68;;;14.20;94.20;;;;;;10565340;28;20043;-22
2023/01/17 07:40:12;;;;;;;2.73;0.83;;;14.40;93.60;;;;;;10569990;28;20139;-26
2023/01/17 07:45:16;;;;;;;3.95;0.82;;;14.60;92.80;;;;;;10571223;28;20055;-24
2023/01/17 07:50:19;;;;;;;5.53;1.20;;;14.60;93.20;;;;;;10565687;28;20050;-24
2023/01/17 07:55:20;;;;;;;3.63;1.33;;;14.50;93.60;;;;;;10573234;28;20047;-25
2023/01/17 08:00:26;;;;;;;4.70;2.43;;;14.20;93.50;;;;;;10570190;28;20044;-26
2023/01/17 08:05:29;;;;;;;3.63;1.58;;;14.30;94.20;;;;;;10562976;28;20043;-24
2023/01/17 08:10:31;;;;;;;4.88;1.30;;;14.50;93.30;;;;;;10561785;28;20056;-26
2023/01/17 08:15:34;;;;;;;1.13;0.50;;;14.50;93.20;;;;;;10561396;28;20509;-25
2023/01/17 08:20:36;;;;;;;0.95;0.40;;;14.60;93.20;;;;;;10558405;28;21479;-23
2023/01/17 08:25:38;;;;;;;2.85;0.52;;;14.50;93.10;;;;;;10527259;28;20434;-24
2023/01/17 08:30:42;;;;;;;4.03;0.43;;;14.30;93.50;;;;;;10525412;28;20130;-26
2023/01/17 08:35:51;;;;;;;0.43;0.40;;;14.40;93.40;;;;;;10528026;28;21106;-25
2023/01/17 08:40:53;;;;;;;1.30;0.40;;;14.50;93.10;;;;;;10525618;28;20135;-25
2023/01/17 08:45:57;;;;;;;1.95;0.45;;;14.50;93.30;;;;;;10531305;28;20144;-26
2023/01/17 08:51:00;;;;;;;3.55;0.55;;;14.60;93.00;;;;;;10534439;28;20693;-27
2023/01/17 08:56:05;;;;;;;1.13;0.50;;;14.50;93.20;;;;;;10539560;28;20201;-26
2023/01/17 09:01:08;;;;;;;0.65;0.50;;;14.50;93.30;;;;;;10536192;28;20046;-25
2023/01/17 09:06:11;;;;;;;1.40;0.50;;;13.90;96.00;;;;;;10538073;28;20139;-25
2023/01/17 09:11:15;;;;;;;1.02;0.50;;;14.10;95.00;;;;;;10543248;28;20243;-25
2023/01/17 09:16:18;;;;;;;1.98;0.65;;;12.90;97.90;;;;;;10538990;28;20128;-25
2023/01/17 09:21:21;;;;;;;1.58;0.50;;;11.40;99.90;;;;;;10539886;28;20150;-27
2023/01/17 09:26:24;;;;;;;1.35;0.52;;;13.50;97.70;;;;;;10536892;28;20047;-25
2023/01/17 09:31:28;;;;;;;0.68;0.50;;;14.00;95.30;;;;;;10539938;28;20047;-25
2023/01/17 09:36:32;;;;;;;0.80;0.30;;;13.50;97.60;;;;;;10526835;28;20466;-23
2023/01/17 09:41:37;;;;;;;6.15;2.38;;;13.80;95.30;;;;;;10538185;28;20052;-24
2023/01/17 09:46:43;;;;;;;7.68;3.58;;;14.20;93.80;;;;;;10528104;28;20060;-23
2023/01/17 09:51:45;;;;;;;8.85;4.35;;;14.20;93.90;;;;;;10522204;28;20139;-25
2023/01/17 09:56:53;;;;;;;13.57;4.07;;;14.30;93.10;;;;;;10531136;28;20139;-24
2023/01/17 10:02:04;;;;;;;8.85;4.07;;;14.40;92.60;;;;;;10546019;28;20517;-25
2023/01/17 10:07:17;;;;;;;6.22;3.05;;;14.40;92.40;;;;;;10538350;28;20143;-28
2023/01/17 10:12:29;;;;;;;8.07;3.38;;;13.60;96.50;;;;;;10535100;28;20059;-24
2023/01/17 10:17:43;;;;;;;8.38;4.20;;;13.50;96.00;;;;;;10542806;28;20045;-26
2023/01/17 10:22:58;;;;;;;5.90;3.05;;;12.70;92.60;;;;;;10531726;28;20159;-25
2023/01/17 10:28:04;;;;;;;7.50;3.17;;;10.30;99.90;;;;;;10540060;28;20151;-26
2023/01/17 10:33:13;;;;;;;4.97;2.55;;;12.10;99.90;;;;;;10536759;28;20156;-26
2023/01/17 10:38:17;;;;;;;4.35;1.88;;;7.80;99.90;;;;;;10530888;28;20440;-25
2023/01/17 10:43:24;;;;;;;12.82;4.65;;;9.80;99.90;;;;;;10528661;28;20087;-25
2023/01/17 10:48:36;;;;;;;9.27;3.17;;;11.70;95.80;;;;;;10535909;28;20081;-26
2023/01/17 10:53:49;;;;;;;13.98;5.63;;;8.70;99.90;;;;;;10526782;28;20044;-25
2023/01/17 10:58:57;;;;;;;;;;;11.60;99.90;;;;;;10525943;28;20048;-25
2023/01/17 11:04:00;;;;;;;5.15;1.77;;;10.50;99.90;;;;;;10528597;28;19920;-25
2023/01/17 11:09:04;;;;;;;6.78;3.20;;;10.40;85.90;;;;;;10524793;28;20133;-29
2023/01/17 11:14:16;;;;;;;3.45;1.08;;;10.40;99.90;;;;;;10527115;28;20059;-25
2023/01/17 11:19:27;;;;;;;7.20;3.45;;;10.00;99.90;;;;;;10531115;28;20142;-27
2023/01/17 11:24:35;;;;;;;3.25;1.35;;;10.50;99.90;;;;;;10534267;28;20507;-24
2023/01/17 11:29:39;;;;;;;9.82;2.35;;;9.00;84.40;;;;;;10535765;28;20734;-24
2023/01/17 11:34:42;;;;;;;3.42;1.75;;;13.00;99.20;;;;;;10528334;28;20052;-27
2023/01/17 11:39:46;;;;;;;4.97;2.42;;;10.40;99.90;;;;;;10512280;28;20070;-28
2023/01/17 11:44:49;;;;;;;2.78;0.90;;;10.80;73.20;;;;;;10513850;28;20048;-26
2023/01/17 11:49:52;;;;;;;3.00;1.10;;;8.70;65.20;;;;;;10533373;28;20416;-25
2023/01/17 11:54:55;;;;;;;4.63;2.67;;;10.90;99.90;;;;;;10527142;28;20537;-25
2023/01/17 12:00:03;;;;;;;;;;;11.50;99.90;;;;;;10516742;28;20445;-25
2023/01/17 12:05:17;;;;;;;3.50;1.60;;;10.10;99.50;;;;;;10528493;28;20265;-24
2023/01/17 12:10:25;;;;;;;4.75;1.48;;;9.90;85.10;;;;;;10522414;28;20140;-25
2023/01/17 12:15:44;;;;;;;4.55;2.10;;;9.80;98.70;;;;;;10531717;28;20075;-27
2023/01/17 12:20:56;;;;;;;1.23;0.73;;;11.10;99.90;;;;;;10537080;28;20489;-25
2023/01/17 12:26:18;;;;;;;1.98;0.95;;;7.30;70.00;;;;;;10528039;28;20650;-25
2023/01/17 12:31:29;;;;;;;2.97;1.80;;;9.90;96.80;;;;;;10522683;28;20047;-25
2023/01/17 12:36:40;;;;;;;4.28;1.10;;;10.00;84.80;;;;;;10531473;28;20083;-25
2023/01/17 12:41:57;;;;;;;5.15;1.13;;;7.80;99.90;;;;;;10523212;28;20096;-25
2023/01/17 12:47:02;;;;;;;0.55;0.50;;;8.00;81.80;;;;;;10525479;28;20048;-26
2023/01/17 12:52:12;;;;;;;3.20;0.80;;;8.30;82.40;;;;;;10520888;28;20048;-26
2023/01/17 12:57:17;;;;;;;1.75;0.75;;;10.60;74.20;;;;;;10524576;28;20071;-25
2023/01/17 13:02:30;;;;;;;6.38;0.82;;;9.60;93.90;;;;;;10527240;28;20047;-23
2023/01/17 13:07:45;;;;;;;2.88;0.60;;;9.30;99.90;;;;;;10523181;28;20069;-25
2023/01/17 13:12:49;;;;;;;4.40;1.00;;;10.60;99.90;;;;;;10531054;28;20408;-25
2023/01/17 13:17:57;;;;;;;1.42;0.88;;;10.60;77.70;;;;;;10529131;28;20846;-25
2023/01/17 13:23:09;;;;;;;2.58;1.20;;;11.20;67.00;;;;;;10523041;28;20040;-25
2023/01/17 13:28:22;;;;;;;3.80;0.88;;;9.80;92.50;;;;;;10536296;28;20055;-28
2023/01/17 13:33:39;;;;;;;2.85;1.23;;;10.90;65.30;;;;;;10530753;27;20063;-23
2023/01/17 13:39:15;;;;;;;1.45;0.90;;;8.70;75.20;;;;;;10522878;28;20040;-24
2023/01/17 13:44:23;;;;;;;1.73;0.73;;;9.50;70.30;;;;;;10495233;28;20496;-23
2023/01/17 13:49:46;;;;;;;2.45;0.82;;;7.70;99.90;;;;;;10518277;28;20173;-24
2023/01/17 13:54:51;;;;;;;3.58;0.80;;;8.40;99.90;;;;;;10529608;28;20059;-25
2023/01/17 13:59:54;;;;;;;3.40;1.30;;;8.10;99.90;;;;;;10517381;28;20141;-24
2023/01/17 14:05:13;;;;;;;0.98;0.65;;;8.30;99.90;;;;;;10520005;28;20102;-25
2023/01/17 14:10:30;;;;;;;1.38;0.80;;;9.00;99.90;;;;;;10528784;28;20060;-27
2023/01/17 14:15:34;;;;;;;2.20;1.10;;;9.00;99.90;;;;;;10544741;28;20091;-22
2023/01/17 14:21:02;;;;;;;2.85;0.70;;;11.00;83.60;;;;;;10531550;28;20151;-26
2023/01/17 14:26:31;;;;;;;1.60;0.88;;;10.40;58.10;;;;;;10525380;28;20047;-25
2023/01/17 14:31:33;;;;;;;3.00;1.33;;;9.40;99.90;;;;;;10521891;28;20735;-22
2023/01/17 14:36:35;;;;;;;5.78;0.60;;;12.00;99.90;;;;;;10529520;28;20487;-26
2023/01/17 14:41:38;;;;;;;1.98;1.33;;;9.60;99.90;;;;;;10522499;28;20059;-24
2023/01/17 14:46:41;;;;;;;2.80;1.30;;;12.40;99.90;;;;;;10523927;28;20082;-26
2023/01/17 14:51:43;;;;;;;3.78;1.70;;;11.50;99.90;;;;;;10519318;28;20097;-28
2023/01/17 14:56:46;;;;;;;2.13;1.20;;;13.10;97.70;;;;;;10528167;28;20044;-27
2023/01/17 15:01:52;;;;;;;3.15;1.52;;;14.10;93.70;;;;;;10528333;28;20052;-27
2023/01/17 15:06:55;;;;;;;3.30;1.58;;;13.90;84.80;;;;;;10525856;28;20553;-27
2023/01/17 15:11:59;;;;;;;5.18;1.63;;;13.40;98.50;;;;;;10520544;28;20092;-25
2023/01/17 15:17:09;;;;;;;4.20;2.13;;;13.70;96.70;;;;;;10505697;28;20065;-25
2023/01/17 15:22:12;;;;;;;5.72;2.00;;;13.80;95.80;;;;;;10497567;28;20052;-25
2023/01/17 15:27:16;;;;;;;;;;;13.90;93.50;;;;;;10513798;28;20071;-28
2023/01/17 15:32:21;;;;;;;5.97;2.47;;;14.00;92.70;;;;;;10519575;28;19972;-25
2023/01/17 15:37:28;;;;;;;5.85;3.35;;;12.90;99.90;;;;;;10531814;28;20094;-24
2023/01/17 15:42:34;;;;;;;7.65;3.83;;;13.70;97.70;;;;;;10511457;28;20054;-26
2023/01/17 15:47:37;;;;;;;11.73;4.93;;;14.60;93.70;;;;;;10518786;28;20134;-24
2023/01/17 15:52:48;;;;;;;7.85;4.35;;;14.80;92.50;;;;;;10531445;28;20476;-25
2023/01/17 15:57:51;;;;;;;9.27;4.80;;;14.90;92.10;;;;;;10535002;28;20044;-28
2023/01/17 16:02:55;;;;;;;9.45;4.47;;;15.20;91.40;;;;;;10512643;28;20094;-25
2023/01/17 16:08:23;;;;;;;8.98;4.65;;;15.40;90.30;;;;;;10517323;28;20048;-25
2023/01/17 16:13:26;;;;;;;13.40;6.03;;;15.20;91.50;;;;;;10538829;28;20109;-28
2023/01/17 16:18:28;;;;;;;15.48;6.80;;;15.00;92.50;;;;;;10526487;28;20083;-27
2023/01/17 16:23:29;;;;;;;11.40;5.47;;;15.40;91.30;;;;;;10525575;28;20071;-24
2023/01/17 16:28:33;;;;;;;15.00;6.03;;;15.40;91.10;;;;;;10519250;28;20495;-24
2023/01/17 16:33:34;;;;;;;9.82;5.20;;;15.40;91.10;;;;;;10533507;28;20121;-25
2023/01/17 16:38:36;;;;;;;11.73;4.95;;;15.50;91.30;;;;;;10530290;28;20072;-26
2023/01/17 16:43:39;;;;;;;8.40;4.20;;;15.50;91.30;;;;;;10533048;28;20047;-25
2023/01/17 16:48:41;;;;;;;12.52;4.93;;;15.50;91.50;;;;;;10528938;28;20052;-23
2023/01/17 16:53:43;;;;;;;12.30;5.07;;;15.50;91.50;;;;;;10531435;28;20155;-25
2023/01/17 16:58:46;;;;;;;10.30;5.47;;;15.50;91.60;;;;;;10530195;28;20101;-26
2023/01/17 17:03:49;;;;;;;10.00;4.40;;;15.60;91.50;;;;;;10529175;28;20133;-25
2023/01/17 17:08:51;;;;;;;8.88;3.38;;;15.50;91.60;;;;;;10515891;28;20047;-28
2023/01/17 17:13:54;;;;;;;6.83;3.70;;;15.60;91.50;;;;;;10517238;28;21723;-26
2023/01/17 17:18:58;;;;;;;5.82;3.00;;;15.60;91.50;;;;;;10522452;28;20466;-27
2023/01/17 17:24:01;;;;;;;10.23;4.18;;;15.70;90.90;;;;;;10524526;28;20071;-26
2023/01/17 17:29:06;;;;;;;8.88;4.13;;;15.70;91.10;;;;;;10497003;28;21301;-25
2023/01/17 17:34:10;;;;;;;9.10;4.88;;;15.70;91.10;;;;;;10515973;28;20047;-25
2023/01/17 17:39:14;;;;;;;11.48;5.10;;;15.70;91.20;;;;;;10523047;28;20056;-26
2023/01/17 17:44:17;;;;;;;11.07;5.78;;;15.70;91.30;;;;;;10515946;28;20052;-25
2023/01/17 17:49:21;;;;;;;10.98;5.18;;;15.70;91.20;;;;;;10521284;28;20127;-25
2023/01/17 17:54:23;;;;;;;11.70;4.88;;;15.70;91.30;;;;;;10520068;28;20052;-26
2023/01/17 17:59:27;;;;;;;9.55;5.60;;;15.70;91.40;;;;;;10525778;28;20510;-26
2023/01/17 18:04:29;;;;;;;10.30;5.57;;;15.60;91.60;;;;;;10513763;28;20075;-26
2023/01/17 18:09:30;;;;;;;10.13;4.67;;;15.60;92.00;;;;;;10506084;28;20359;-26
2023/01/17 18:14:34;;;;;;;13.27;5.47;;;15.50;92.30;;;;;;10519303;28;20124;-26
2023/01/17 18:19:37;;;;;;;12.18;5.03;;;15.60;92.40;;;;;;10522646;28;20439;-25
2023/01/17 18:24:39;;;;;;;9.27;4.00;;;15.40;92.50;;;;;;10520972;28;20569;-25
2023/01/17 18:29:42;;;;;;;15.53;6.67;;;15.20;92.60;;;;;;10518212;28;20060;-24
2023/01/17 18:34:44;;;;;;;10.85;5.00;;;15.20;92.40;;;;;;10514445;28;20135;-25
2023/01/17 18:39:46;;;;;;;14.17;7.00;;;15.10;92.50;;;;;;10521460;28;20048;-23
2023/01/17 18:44:49;;;;;;;9.50;5.30;;;15.00;92.40;;;;;;10525208;28;20052;-26
2023/01/17 18:49:52;;;;;;;11.52;5.18;;;14.00;96.30;;;;;;10519414;28;20561;-25
2023/01/17 18:54:54;;;;;;;12.30;5.47;;;13.70;96.10;;;;;;10534267;28;20047;-25
2023/01/17 18:59:57;;;;;;;6.07;4.20;;;12.40;99.90;;;;;;10525671;27;20119;-25
2023/01/17 19:05:00;;;;;;;10.77;4.90;;;12.70;79.80;;;;;;10531231;28;20051;-27
2023/01/17 19:10:02;;;;;;;15.48;5.13;;;14.00;96.50;;;;;;10527331;28;20063;-25
2023/01/17 19:15:06;;;;;;;9.18;4.68;;;14.50;93.90;;;;;;10530713;28;20145;-24
2023/01/17 19:20:11;;;;;;;9.90;4.97;;;14.60;93.10;;;;;;10521964;28;20044;-25
2023/01/17 19:25:13;;;;;;;8.88;4.43;;;14.20;94.70;;;;;;10531097;28;20056;-26
2023/01/17 19:30:18;;;;;;;6.80;3.87;;;14.90;92.60;;;;;;10525969;28;20058;-25
2023/01/17 19:35:20;;;;;;;5.60;2.65;;;15.10;92.50;;;;;;10534360;28;20700;-25
2023/01/17 19:40:22;;;;;;;3.73;1.97;;;15.20;92.50;;;;;;10526481;28;20051;-27
2023/01/17 19:45:25;;;;;;;7.73;2.77;;;15.20;92.70;;;;;;10525661;28;20078;-25
2023/01/17 19:50:27;;;;;;;3.53;1.77;;;15.30;92.50;;;;;;10510169;28;20036;-25
2023/01/17 19:55:29;;;;;;;4.30;1.57;;;15.30;92.40;;;;;;10511625;28;20048;-24
2023/01/17 20:00:34;;;;;;;5.37;2.10;;;15.40;92.60;;;;;;10520602;28;20113;-25
2023/01/17 20:05:36;;;;;;;5.85;1.90;;;15.40;92.50;;;;;;10518676;28;20455;-28
2023/01/17 20:10:38;;;;;;;5.80;1.50;;;15.50;92.60;;;;;;10521239;28;20090;-25
2023/01/17 20:15:41;;;;;;;9.27;1.10;;;15.40;92.70;;;;;;10521902;28;20056;-25
2023/01/17 20:20:43;;;;;;;6.25;3.53;;;15.50;92.70;;;;;;10513383;28;20495;-26
2023/01/17 20:25:57;;;;;;;9.43;4.27;;;15.50;92.40;;;;;;10518867;28;20744;-26
2023/01/17 20:31:07;;;;;;;13.32;5.38;;;15.50;92.70;;;;;;10508356;28;20044;-25
2023/01/17 20:36:11;;;;;;;13.05;6.40;;;15.50;92.40;;;;;;10504611;28;20052;-24
2023/01/17 20:41:15;;;;;;;13.80;5.43;;;15.50;92.30;;;;;;10512726;28;20056;-24
2023/01/17 20:46:20;;;;;;;16.80;6.43;;;15.50;92.40;;;;;;10514714;28;20048;-25
2023/01/17 20:51:24;;;;;;;17.73;7.63;;;15.60;91.90;;;;;;10528228;28;20040;-26
2023/01/17 20:56:28;;;;;;;17.85;8.02;;;15.60;91.80;;;;;;10513008;28;20400;-25
2023/01/17 21:01:33;;;;;;;15.15;6.35;;;15.50;92.00;;;;;;10534838;28;20048;-26
2023/01/17 21:06:34;;;;;;;12.50;6.20;;;15.50;91.90;;;;;;10528806;28;20048;-24
2023/01/17 21:11:37;;;;;;;16.57;7.00;;;15.50;91.90;;;;;;10526288;28;20072;-25
2023/01/17 21:16:40;;;;;;;19.38;8.20;;;15.60;91.80;;;;;;10528166;28;20047;-26
2023/01/17 21:21:42;;;;;;;16.98;7.90;;;15.50;91.70;;;;;;10531038;28;20127;-26
2023/01/17 21:26:45;;;;;;;15.32;8.02;;;15.50;91.80;;;;;;10506764;28;20048;-26
2023/01/17 21:31:48;;;;;;;22.48;9.35;;;15.50;91.90;;;;;;10521482;28;20051;-25
2023/01/17 21:36:50;;;;;;;22.90;9.20;;;15.40;92.20;;;;;;10537962;28;20048;-25
2023/01/17 21:41:52;;;;;;;18.77;9.00;;;15.40;92.10;;;;;;10524792;28;20533;-27
2023/01/17 21:46:55;;;;;;;22.80;10.50;;;15.40;92.10;;;;;;10522618;28;20471;-24
2023/01/17 22:02:39;;;;;;;15.98;7.53;;;15.40;92.10;;;;;;10528019;28;20036;-25
2023/01/17 22:08:09;;;;;;;19.77;9.68;;;15.40;92.20;;;;;;10525416;28;20063;-24
2023/01/17 22:13:04;;;;;;;20.55;8.65;;;15.30;92.20;;;;;;10546070;28;20060;-27
2023/01/17 22:18:08;;;;;;;29.37;9.07;;;15.30;92.20;;;;;;10523206;28;20563;-24
2023/01/17 22:23:11;;;;;;;18.02;9.63;;;15.30;92.30;;;;;;10526359;28;20066;-25
2023/01/17 22:28:13;;;;;;;17.40;8.68;;;15.10;92.80;;;;;;10527585;28;20397;-25
2023/01/17 22:33:16;;;;;;;17.50;7.13;;;15.30;92.30;;;;;;10528516;28;20055;-24
2023/01/17 22:38:18;;;;;;;14.10;5.75;;;15.20;91.30;;;;;;10527818;28;20079;-25
2023/01/17 22:43:20;;;;;;;9.83;3.03;;;14.60;79.20;;;;;;10514319;28;20048;-23
2023/01/17 22:48:24;;;;;;;13.55;7.10;;;14.60;94.30;;;;;;10509148;28;20047;-26
2023/01/17 22:53:26;;;;;;;15.68;6.88;;;15.10;92.70;;;;;;10533049;28;20044;-25
2023/01/17 22:58:29;;;;;;;16.85;6.43;;;15.10;92.30;;;;;;10527652;28;20110;-25
2023/01/17 23:03:33;;;;;;;23.63;11.60;;;15.00;92.80;;;;;;10522732;28;20064;-25
2023/01/17 23:08:35;;;;;;;13.30;7.15;;;15.10;91.70;;;;;;10506345;28;20072;-26
2023/01/17 23:13:37;;;;;;;12.97;6.73;;;15.20;91.90;;;;;;10531092;28;20048;-26
2023/01/17 23:24:00;;;;;;;11.35;6.13;;;15.00;92.30;;;;;;10519728;28;20044;-27
2023/01/17 23:29:02;;;;;;;13.50;6.87;;;15.00;92.10;;;;;;10519296;28;20036;-26
2023/01/17 23:34:05;;;;;;;13.27;6.10;;;15.00;91.90;;;;;;10530639;28;20742;-26
2023/01/17 23:39:07;;;;;;;12.30;6.00;;;15.00;91.80;;;;;;10523629;28;20048;-24
2023/01/17 23:44:09;;;;;;;16.10;7.87;;;14.90;92.20;;;;;;10526847;28;20055;-24
2023/01/17 23:49:12;;;;;;;17.10;8.10;;;14.80;92.40;;;;;;10531213;28;20071;-24
2023/01/17 23:54:14;;;;;;;10.45;5.30;;;14.60;93.00;;;;;;10533192;28;20429;-24
2023/01/17 23:59:16;;;;;;;11.52;5.60;;;14.30;93.50;;;;;;10522550;28;20048;-25
